sensor_id;sensor_type;location;lat;lon;timestamp;P1;durP1;ratioP1;P2;durP2;ratioP2
65077;SDS011;51672;51.230;-2.322;2022-08-04T00:00:15;11.40;;;1.50;;
65077;SDS011;51672;51.230;-2.322;2022-08-04T00:04:02;8.07;;;1.42;;
65077;SDS011;51672;51.230;-2.322;2022-08-04T00:11:44;8.13;;;1.53;;
65077;SDS011;51672;51.230;-2.322;2022-08-04T00:15:29;8.90;;;1.20;;
65077;SDS011;51672;51.230;-2.322;2022-08-04T00:19:24;10.10;;;1.55;;
65077;SDS011;51672;51.230;-2.322;2022-08-04T00:23:16;8.33;;;1.20;;
65077;SDS011;51672;51.230;-2.322;2022-08-04T00:26:59;6.00;;;1.17;;
65077;SDS011;51672;51.230;-2.322;2022-08-04T00:30:41;10.18;;;1.25;;
65077;SDS011;51672;51.230;-2.322;2022-08-04T00:34:27;8.48;;;1.58;;
65077;SDS011;51672;51.230;-2.322;2022-08-04T00:38:11;7.10;;;1.73;;
65077;SDS011;51672;51.230;-2.322;2022-08-04T00:46:49;10.23;;;1.70;;
65077;SDS011;51672;51.230;-2.322;2022-08-04T00:50:17;10.53;;;1.47;;
65077;SDS011;51672;51.230;-2.322;2022-08-04T00:58:18;8.77;;;2.05;;
65077;SDS011;51672;51.230;-2.322;2022-08-04T01:06:44;10.63;;;1.48;;
65077;SDS011;51672;51.230;-2.322;2022-08-04T01:10:39;9.18;;;1.70;;
65077;SDS011;51672;51.230;-2.322;2022-08-04T01:18:42;7.57;;;1.38;;
65077;SDS011;51672;51.230;-2.322;2022-08-04T01:30:38;8.80;;;1.50;;
65077;SDS011;51672;51.230;-2.322;2022-08-04T01:34:33;6.70;;;1.60;;
65077;SDS011;51672;51.230;-2.322;2022-08-04T01:38:18;8.20;;;1.58;;
65077;SDS011;51672;51.230;-2.322;2022-08-04T01:42:06;11.10;;;1.80;;
65077;SDS011;51672;51.230;-2.322;2022-08-04T01:45:56;7.85;;;1.63;;
65077;SDS011;51672;51.230;-2.322;2022-08-04T01:49:39;8.68;;;1.60;;
65077;SDS011;51672;51.230;-2.322;2022-08-04T01:53:30;8.95;;;2.03;;
65077;SDS011;51672;51.230;-2.322;2022-08-04T01:57:13;8.73;;;1.67;;
65077;SDS011;51672;51.230;-2.322;2022-08-04T02:01:17;9.32;;;1.95;;
65077;SDS011;51672;51.230;-2.322;2022-08-04T02:04:59;7.20;;;1.50;;
65077;SDS011;51672;51.230;-2.322;2022-08-04T02:09:02;9.47;;;2.10;;
65077;SDS011;51672;51.230;-2.322;2022-08-04T02:20:33;8.33;;;1.60;;
65077;SDS011;51672;51.230;-2.322;2022-08-04T02:24:19;8.48;;;1.77;;
65077;SDS011;51672;51.230;-2.322;2022-08-04T02:32:12;8.93;;;1.80;;
65077;SDS011;51672;51.230;-2.322;2022-08-04T02:36:03;6.78;;;1.65;;
65077;SDS011;51672;51.230;-2.322;2022-08-04T02:39:46;6.95;;;1.80;;
65077;SDS011;51672;51.230;-2.322;2022-08-04T02:43:33;8.68;;;1.73;;
65077;SDS011;51672;51.230;-2.322;2022-08-04T02:47:32;7.90;;;1.80;;
65077;SDS011;51672;51.230;-2.322;2022-08-04T02:51:36;9.43;;;2.10;;
65077;SDS011;51672;51.230;-2.322;2022-08-04T02:55:21;7.35;;;1.83;;
65077;SDS011;51672;51.230;-2.322;2022-08-04T02:59:07;8.47;;;1.97;;
65077;SDS011;51672;51.230;-2.322;2022-08-04T03:02:56;7.53;;;1.83;;
65077;SDS011;51672;51.230;-2.322;2022-08-04T03:15:57;6.07;;;1.77;;
65077;SDS011;51672;51.230;-2.322;2022-08-04T03:52:07;8.93;;;1.92;;
65077;SDS011;51672;51.230;-2.322;2022-08-04T03:56:26;8.70;;;2.30;;
65077;SDS011;51672;51.230;-2.322;2022-08-04T04:00:13;6.10;;;2.03;;
65077;SDS011;51672;51.230;-2.322;2022-08-04T04:54:33;10.70;;;1.90;;
65077;SDS011;51672;51.230;-2.322;2022-08-04T04:58:35;6.63;;;1.90;;
65077;SDS011;51672;51.230;-2.322;2022-08-04T05:14:29;9.45;;;2.15;;
65077;SDS011;51672;51.230;-2.322;2022-08-04T05:26:32;8.38;;;2.15;;
65077;SDS011;51672;51.230;-2.322;2022-08-04T05:30:18;9.27;;;2.00;;
65077;SDS011;51672;51.230;-2.322;2022-08-04T05:34:06;7.82;;;1.85;;
65077;SDS011;51672;51.230;-2.322;2022-08-04T05:38:02;9.32;;;2.00;;
65077;SDS011;51672;51.230;-2.322;2022-08-04T05:41:48;12.33;;;2.17;;
65077;SDS011;51672;51.230;-2.322;2022-08-04T05:45:58;9.02;;;1.88;;
65077;SDS011;51672;51.230;-2.322;2022-08-04T05:49:42;10.18;;;2.10;;
65077;SDS011;51672;51.230;-2.322;2022-08-04T05:53:31;7.72;;;1.88;;
65077;SDS011;51672;51.230;-2.322;2022-08-04T05:57:15;9.07;;;2.13;;
65077;SDS011;51672;51.230;-2.322;2022-08-04T06:01:03;6.57;;;1.70;;
65077;SDS011;51672;51.230;-2.322;2022-08-04T06:05:12;7.38;;;1.85;;
65077;SDS011;51672;51.230;-2.322;2022-08-04T06:13:02;8.90;;;1.95;;
65077;SDS011;51672;51.230;-2.322;2022-08-04T06:16:48;8.00;;;2.28;;
65077;SDS011;51672;51.230;-2.322;2022-08-04T06:20:51;11.53;;;2.30;;
65077;SDS011;51672;51.230;-2.322;2022-08-04T06:24:39;7.63;;;2.13;;
65077;SDS011;51672;51.230;-2.322;2022-08-04T06:28:26;8.45;;;2.15;;
65077;SDS011;51672;51.230;-2.322;2022-08-04T06:32:24;8.13;;;2.10;;
65077;SDS011;51672;51.230;-2.322;2022-08-04T06:36:18;8.00;;;2.47;;
65077;SDS011;51672;51.230;-2.322;2022-08-04T06:44:32;6.57;;;1.98;;
65077;SDS011;51672;51.230;-2.322;2022-08-04T06:48:17;5.80;;;1.73;;
65077;SDS011;51672;51.230;-2.322;2022-08-04T06:52:06;6.80;;;1.70;;
65077;SDS011;51672;51.230;-2.322;2022-08-04T06:55:49;6.07;;;1.90;;
65077;SDS011;51672;51.230;-2.322;2022-08-04T06:59:33;8.30;;;1.90;;
65077;SDS011;51672;51.230;-2.322;2022-08-04T07:07:31;7.43;;;1.67;;
65077;SDS011;51672;51.230;-2.322;2022-08-04T07:11:35;7.53;;;2.00;;
65077;SDS011;51672;51.230;-2.322;2022-08-04T07:15:25;6.30;;;1.45;;
65077;SDS011;51672;51.230;-2.322;2022-08-04T07:19:29;6.68;;;1.67;;
65077;SDS011;51672;51.230;-2.322;2022-08-04T07:23:12;4.53;;;1.60;;
65077;SDS011;51672;51.230;-2.322;2022-08-04T07:27:25;7.83;;;1.70;;
65077;SDS011;51672;51.230;-2.322;2022-08-04T07:31:31;6.25;;;1.65;;
65077;SDS011;51672;51.230;-2.322;2022-08-04T07:35:33;5.40;;;1.35;;
65077;SDS011;51672;51.230;-2.322;2022-08-04T07:39:48;8.37;;;1.70;;
65077;SDS011;51672;51.230;-2.322;2022-08-04T07:43:31;8.63;;;1.98;;
65077;SDS011;51672;51.230;-2.322;2022-08-04T07:47:20;6.25;;;1.90;;
65077;SDS011;51672;51.230;-2.322;2022-08-04T07:51:19;6.72;;;1.60;;
65077;SDS011;51672;51.230;-2.322;2022-08-04T07:55:10;8.10;;;1.97;;
65077;SDS011;51672;51.230;-2.322;2022-08-04T07:58:54;6.03;;;1.58;;
65077;SDS011;51672;51.230;-2.322;2022-08-04T08:02:37;8.05;;;1.55;;
65077;SDS011;51672;51.230;-2.322;2022-08-04T08:10:28;13.43;;;1.90;;
65077;SDS011;51672;51.230;-2.322;2022-08-04T08:14:21;5.22;;;1.38;;
65077;SDS011;51672;51.230;-2.322;2022-08-04T08:18:20;6.78;;;1.40;;
65077;SDS011;51672;51.230;-2.322;2022-08-04T08:22:13;5.40;;;1.40;;
65077;SDS011;51672;51.230;-2.322;2022-08-04T08:25:57;6.38;;;1.45;;
65077;SDS011;51672;51.230;-2.322;2022-08-04T08:29:40;6.22;;;1.40;;
65077;SDS011;51672;51.230;-2.322;2022-08-04T08:33:27;5.50;;;1.60;;
65077;SDS011;51672;51.230;-2.322;2022-08-04T09:11:23;6.22;;;1.40;;
65077;SDS011;51672;51.230;-2.322;2022-08-04T09:15:14;4.97;;;1.33;;
65077;SDS011;51672;51.230;-2.322;2022-08-04T09:28:17;6.60;;;1.53;;
65077;SDS011;51672;51.230;-2.322;2022-08-04T09:46:19;5.72;;;1.58;;
65077;SDS011;51672;51.230;-2.322;2022-08-04T09:50:33;4.38;;;1.00;;
65077;SDS011;51672;51.230;-2.322;2022-08-04T10:02:54;4.13;;;0.90;;
65077;SDS011;51672;51.230;-2.322;2022-08-04T10:10:59;4.53;;;1.00;;
65077;SDS011;51672;51.230;-2.322;2022-08-04T10:23:14;4.18;;;0.98;;
65077;SDS011;51672;51.230;-2.322;2022-08-04T10:27:56;3.53;;;0.83;;
65077;SDS011;51672;51.230;-2.322;2022-08-04T10:31:45;2.90;;;0.90;;
65077;SDS011;51672;51.230;-2.322;2022-08-04T10:35:49;3.90;;;0.88;;
65077;SDS011;51672;51.230;-2.322;2022-08-04T10:52:43;3.72;;;1.27;;
65077;SDS011;51672;51.230;-2.322;2022-08-04T10:57:03;4.30;;;1.20;;
65077;SDS011;51672;51.230;-2.322;2022-08-04T11:09:38;2.60;;;0.60;;
65077;SDS011;51672;51.230;-2.322;2022-08-04T11:21:47;3.20;;;0.60;;
65077;SDS011;51672;51.230;-2.322;2022-08-04T11:34:23;3.47;;;1.08;;
65077;SDS011;51672;51.230;-2.322;2022-08-04T11:54:47;4.03;;;0.75;;
65077;SDS011;51672;51.230;-2.322;2022-08-04T11:58:53;4.18;;;0.73;;
65077;SDS011;51672;51.230;-2.322;2022-08-04T12:02:44;5.18;;;0.80;;
65077;SDS011;51672;51.230;-2.322;2022-08-04T12:15:52;4.03;;;0.93;;
65077;SDS011;51672;51.230;-2.322;2022-08-04T12:19:56;4.20;;;0.70;;
65077;SDS011;51672;51.230;-2.322;2022-08-04T12:28:33;5.80;;;0.70;;
65077;SDS011;51672;51.230;-2.322;2022-08-04T12:32:40;4.17;;;0.83;;
65077;SDS011;51672;51.230;-2.322;2022-08-04T12:45:24;2.65;;;0.70;;
65077;SDS011;51672;51.230;-2.322;2022-08-04T12:49:11;3.10;;;0.87;;
65077;SDS011;51672;51.230;-2.322;2022-08-04T12:53:12;3.08;;;0.63;;
65077;SDS011;51672;51.230;-2.322;2022-08-04T12:57:26;5.57;;;1.13;;
65077;SDS011;51672;51.230;-2.322;2022-08-04T13:01:10;3.50;;;0.82;;
65077;SDS011;51672;51.230;-2.322;2022-08-04T13:05:36;4.45;;;0.93;;
65077;SDS011;51672;51.230;-2.322;2022-08-04T13:09:27;2.83;;;0.67;;
65077;SDS011;51672;51.230;-2.322;2022-08-04T13:13:34;3.15;;;0.70;;
65077;SDS011;51672;51.230;-2.322;2022-08-04T13:17:19;2.83;;;0.70;;
65077;SDS011;51672;51.230;-2.322;2022-08-04T13:21:24;3.05;;;0.70;;
65077;SDS011;51672;51.230;-2.322;2022-08-04T13:25:39;2.83;;;0.40;;
65077;SDS011;51672;51.230;-2.322;2022-08-04T13:29:44;3.67;;;0.80;;
65077;SDS011;51672;51.230;-2.322;2022-08-04T13:33:51;3.80;;;0.88;;
65077;SDS011;51672;51.230;-2.322;2022-08-04T13:37:36;6.63;;;0.80;;
65077;SDS011;51672;51.230;-2.322;2022-08-04T13:41:42;6.00;;;0.90;;
65077;SDS011;51672;51.230;-2.322;2022-08-04T13:45:57;3.55;;;0.73;;
65077;SDS011;51672;51.230;-2.322;2022-08-04T13:54:07;4.85;;;0.90;;
65077;SDS011;51672;51.230;-2.322;2022-08-04T14:02:02;4.43;;;1.10;;
65077;SDS011;51672;51.230;-2.322;2022-08-04T14:06:03;3.07;;;0.70;;
65077;SDS011;51672;51.230;-2.322;2022-08-04T14:14:24;3.47;;;0.70;;
65077;SDS011;51672;51.230;-2.322;2022-08-04T14:26:29;4.25;;;0.90;;
65077;SDS011;51672;51.230;-2.322;2022-08-04T14:34:27;3.08;;;0.85;;
65077;SDS011;51672;51.230;-2.322;2022-08-04T14:46:49;4.25;;;0.65;;
65077;SDS011;51672;51.230;-2.322;2022-08-04T14:54:36;3.08;;;0.65;;
65077;SDS011;51672;51.230;-2.322;2022-08-04T15:02:27;4.63;;;0.80;;
65077;SDS011;51672;51.230;-2.322;2022-08-04T15:06:11;3.97;;;0.90;;
65077;SDS011;51672;51.230;-2.322;2022-08-04T15:10:22;3.20;;;0.60;;
65077;SDS011;51672;51.230;-2.322;2022-08-04T15:14:06;5.45;;;0.80;;
65077;SDS011;51672;51.230;-2.322;2022-08-04T15:18:15;4.78;;;1.17;;
65077;SDS011;51672;51.230;-2.322;2022-08-04T15:21:59;5.03;;;0.70;;
65077;SDS011;51672;51.230;-2.322;2022-08-04T15:25:47;9.93;;;1.30;;
65077;SDS011;51672;51.230;-2.322;2022-08-04T15:29:51;3.22;;;0.63;;
65077;SDS011;51672;51.230;-2.322;2022-08-04T15:34:00;3.30;;;0.63;;
65077;SDS011;51672;51.230;-2.322;2022-08-04T15:50:31;5.93;;;0.65;;
65077;SDS011;51672;51.230;-2.322;2022-08-04T16:14:37;3.53;;;0.70;;
65077;SDS011;51672;51.230;-2.322;2022-08-04T16:22:36;2.50;;;0.47;;
65077;SDS011;51672;51.230;-2.322;2022-08-04T16:30:39;4.20;;;0.60;;
65077;SDS011;51672;51.230;-2.322;2022-08-04T16:34:32;3.28;;;0.60;;
65077;SDS011;51672;51.230;-2.322;2022-08-04T16:42:43;2.38;;;0.43;;
65077;SDS011;51672;51.230;-2.322;2022-08-04T16:55:07;3.15;;;0.40;;
65077;SDS011;51672;51.230;-2.322;2022-08-04T16:58:50;3.08;;;0.50;;
65077;SDS011;51672;51.230;-2.322;2022-08-04T17:02:39;3.22;;;0.60;;
65077;SDS011;51672;51.230;-2.322;2022-08-04T17:06:39;2.97;;;0.47;;
65077;SDS011;51672;51.230;-2.322;2022-08-04T17:14:36;3.47;;;0.70;;
65077;SDS011;51672;51.230;-2.322;2022-08-04T17:18:26;2.73;;;0.50;;
65077;SDS011;51672;51.230;-2.322;2022-08-04T17:22:26;3.72;;;0.50;;
65077;SDS011;51672;51.230;-2.322;2022-08-04T17:26:18;2.83;;;0.70;;
65077;SDS011;51672;51.230;-2.322;2022-08-04T17:30:25;3.63;;;0.52;;
65077;SDS011;51672;51.230;-2.322;2022-08-04T17:34:09;3.05;;;0.63;;
65077;SDS011;51672;51.230;-2.322;2022-08-04T17:38:10;2.35;;;0.60;;
65077;SDS011;51672;51.230;-2.322;2022-08-04T17:42:01;2.58;;;0.55;;
65077;SDS011;51672;51.230;-2.322;2022-08-04T17:46:12;3.37;;;0.50;;
65077;SDS011;51672;51.230;-2.322;2022-08-04T17:50:27;3.33;;;0.40;;
65077;SDS011;51672;51.230;-2.322;2022-08-04T17:58:30;1.93;;;0.40;;
65077;SDS011;51672;51.230;-2.322;2022-08-04T18:02:23;2.92;;;0.50;;
65077;SDS011;51672;51.230;-2.322;2022-08-04T18:06:22;2.35;;;0.40;;
65077;SDS011;51672;51.230;-2.322;2022-08-04T18:10:13;3.03;;;0.60;;
65077;SDS011;51672;51.230;-2.322;2022-08-04T18:14:14;2.80;;;0.60;;
65077;SDS011;51672;51.230;-2.322;2022-08-04T18:22:10;3.08;;;0.50;;
65077;SDS011;51672;51.230;-2.322;2022-08-04T18:26:21;2.05;;;0.40;;
65077;SDS011;51672;51.230;-2.322;2022-08-04T18:30:04;3.40;;;0.57;;
65077;SDS011;51672;51.230;-2.322;2022-08-04T18:34:14;3.78;;;0.60;;
65077;SDS011;51672;51.230;-2.322;2022-08-04T18:38:04;5.32;;;1.05;;
65077;SDS011;51672;51.230;-2.322;2022-08-04T18:42:06;3.55;;;0.80;;
65077;SDS011;51672;51.230;-2.322;2022-08-04T18:45:50;2.00;;;0.40;;
65077;SDS011;51672;51.230;-2.322;2022-08-04T18:49:36;2.17;;;0.40;;
65077;SDS011;51672;51.230;-2.322;2022-08-04T18:53:39;3.83;;;0.75;;
65077;SDS011;51672;51.230;-2.322;2022-08-04T18:57:31;4.53;;;0.53;;
65077;SDS011;51672;51.230;-2.322;2022-08-04T19:01:33;3.95;;;0.50;;
65077;SDS011;51672;51.230;-2.322;2022-08-04T19:05:46;2.25;;;0.40;;
65077;SDS011;51672;51.230;-2.322;2022-08-04T19:09:29;3.07;;;0.50;;
65077;SDS011;51672;51.230;-2.322;2022-08-04T19:13:39;3.45;;;0.52;;
65077;SDS011;51672;51.230;-2.322;2022-08-04T19:21:59;3.70;;;0.60;;
65077;SDS011;51672;51.230;-2.322;2022-08-04T19:26:03;3.42;;;0.50;;
65077;SDS011;51672;51.230;-2.322;2022-08-04T19:30:10;2.78;;;0.55;;
65077;SDS011;51672;51.230;-2.322;2022-08-04T19:34:13;4.68;;;1.00;;
65077;SDS011;51672;51.230;-2.322;2022-08-04T19:38:02;2.27;;;0.43;;
65077;SDS011;51672;51.230;-2.322;2022-08-04T19:41:51;2.97;;;0.68;;
65077;SDS011;51672;51.230;-2.322;2022-08-04T19:45:55;3.33;;;0.50;;
65077;SDS011;51672;51.230;-2.322;2022-08-04T19:49:41;3.20;;;0.50;;
65077;SDS011;51672;51.230;-2.322;2022-08-04T19:53:50;2.80;;;0.40;;
65077;SDS011;51672;51.230;-2.322;2022-08-04T19:57:51;2.80;;;0.45;;
65077;SDS011;51672;51.230;-2.322;2022-08-04T20:01:34;3.22;;;0.43;;
65077;SDS011;51672;51.230;-2.322;2022-08-04T20:05:25;2.72;;;0.52;;
65077;SDS011;51672;51.230;-2.322;2022-08-04T20:09:27;2.42;;;0.40;;
65077;SDS011;51672;51.230;-2.322;2022-08-04T20:13:18;3.03;;;0.50;;
65077;SDS011;51672;51.230;-2.322;2022-08-04T20:17:01;3.90;;;0.50;;
65077;SDS011;51672;51.230;-2.322;2022-08-04T20:20:50;2.90;;;0.55;;
65077;SDS011;51672;51.230;-2.322;2022-08-04T20:24:33;5.25;;;0.60;;
65077;SDS011;51672;51.230;-2.322;2022-08-04T20:28:29;2.63;;;0.40;;
65077;SDS011;51672;51.230;-2.322;2022-08-04T20:32:18;3.53;;;0.45;;
65077;SDS011;51672;51.230;-2.322;2022-08-04T20:36:02;2.88;;;0.50;;
65077;SDS011;51672;51.230;-2.322;2022-08-04T20:39:47;6.20;;;0.57;;
65077;SDS011;51672;51.230;-2.322;2022-08-04T20:43:36;4.45;;;0.75;;
65077;SDS011;51672;51.230;-2.322;2022-08-04T20:47:19;2.75;;;0.50;;
65077;SDS011;51672;51.230;-2.322;2022-08-04T20:51:02;4.03;;;0.77;;
65077;SDS011;51672;51.230;-2.322;2022-08-04T20:54:44;3.67;;;0.60;;
65077;SDS011;51672;51.230;-2.322;2022-08-04T20:58:29;5.25;;;0.85;;
65077;SDS011;51672;51.230;-2.322;2022-08-04T21:02:11;5.60;;;0.70;;
65077;SDS011;51672;51.230;-2.322;2022-08-04T21:05:56;4.77;;;0.80;;
65077;SDS011;51672;51.230;-2.322;2022-08-04T21:09:41;3.75;;;0.50;;
65077;SDS011;51672;51.230;-2.322;2022-08-04T21:13:31;3.10;;;0.65;;
65077;SDS011;51672;51.230;-2.322;2022-08-04T21:17:34;3.75;;;0.63;;
65077;SDS011;51672;51.230;-2.322;2022-08-04T21:21:36;3.45;;;0.63;;
65077;SDS011;51672;51.230;-2.322;2022-08-04T21:25:19;3.28;;;0.60;;
65077;SDS011;51672;51.230;-2.322;2022-08-04T21:29:02;3.95;;;0.50;;
65077;SDS011;51672;51.230;-2.322;2022-08-04T21:32:46;2.77;;;0.60;;
65077;SDS011;51672;51.230;-2.322;2022-08-04T21:36:30;7.22;;;0.50;;
65077;SDS011;51672;51.230;-2.322;2022-08-04T21:40:13;2.92;;;0.50;;
65077;SDS011;51672;51.230;-2.322;2022-08-04T21:44:16;3.40;;;0.70;;
65077;SDS011;51672;51.230;-2.322;2022-08-04T21:47:59;3.78;;;0.60;;
65077;SDS011;51672;51.230;-2.322;2022-08-04T21:51:41;3.33;;;0.55;;
65077;SDS011;51672;51.230;-2.322;2022-08-04T21:55:41;5.88;;;0.60;;
65077;SDS011;51672;51.230;-2.322;2022-08-04T21:59:43;4.90;;;0.70;;
65077;SDS011;51672;51.230;-2.322;2022-08-04T22:03:26;3.08;;;0.60;;
65077;SDS011;51672;51.230;-2.322;2022-08-04T22:07:28;3.20;;;0.70;;
65077;SDS011;51672;51.230;-2.322;2022-08-04T22:11:31;4.87;;;0.70;;
65077;SDS011;51672;51.230;-2.322;2022-08-04T22:15:29;3.47;;;0.70;;
65077;SDS011;51672;51.230;-2.322;2022-08-04T22:19:31;2.97;;;0.52;;
65077;SDS011;51672;51.230;-2.322;2022-08-04T22:23:34;4.03;;;0.67;;
65077;SDS011;51672;51.230;-2.322;2022-08-04T22:27:26;4.40;;;0.65;;
65077;SDS011;51672;51.230;-2.322;2022-08-04T22:31:28;3.83;;;0.70;;
65077;SDS011;51672;51.230;-2.322;2022-08-04T22:35:30;3.95;;;0.60;;
65077;SDS011;51672;51.230;-2.322;2022-08-04T22:39:29;3.15;;;0.55;;
65077;SDS011;51672;51.230;-2.322;2022-08-04T22:43:12;4.70;;;0.60;;
65077;SDS011;51672;51.230;-2.322;2022-08-04T22:47:14;3.78;;;0.60;;
65077;SDS011;51672;51.230;-2.322;2022-08-04T22:51:04;5.10;;;0.50;;
65077;SDS011;51672;51.230;-2.322;2022-08-04T22:54:47;3.55;;;0.63;;
65077;SDS011;51672;51.230;-2.322;2022-08-04T22:58:30;6.53;;;0.50;;
65077;SDS011;51672;51.230;-2.322;2022-08-04T23:02:13;3.07;;;0.50;;
65077;SDS011;51672;51.230;-2.322;2022-08-04T23:05:55;3.55;;;0.52;;
65077;SDS011;51672;51.230;-2.322;2022-08-04T23:09:38;3.70;;;0.50;;
65077;SDS011;51672;51.230;-2.322;2022-08-04T23:13:31;4.35;;;0.50;;
65077;SDS011;51672;51.230;-2.322;2022-08-04T23:17:13;5.18;;;0.68;;
65077;SDS011;51672;51.230;-2.322;2022-08-04T23:20:56;3.72;;;0.40;;
65077;SDS011;51672;51.230;-2.322;2022-08-04T23:24:38;3.22;;;0.57;;
65077;SDS011;51672;51.230;-2.322;2022-08-04T23:28:21;2.00;;;0.43;;
65077;SDS011;51672;51.230;-2.322;2022-08-04T23:32:03;3.72;;;0.50;;
65077;SDS011;51672;51.230;-2.322;2022-08-04T23:35:46;2.60;;;0.40;;
65077;SDS011;51672;51.230;-2.322;2022-08-04T23:39:34;4.43;;;0.50;;
65077;SDS011;51672;51.230;-2.322;2022-08-04T23:43:36;3.85;;;0.40;;
65077;SDS011;51672;51.230;-2.322;2022-08-04T23:47:35;2.67;;;0.40;;
65077;SDS011;51672;51.230;-2.322;2022-08-04T23:51:37;5.32;;;0.50;;
65077;SDS011;51672;51.230;-2.322;2022-08-04T23:55:19;2.67;;;0.30;;
65077;SDS011;51672;51.230;-2.322;2022-08-04T23:59:01;3.47;;;0.65;;
